createdAt,value
2022-09-16T00:00:50.693Z,8.70
2022-09-16T00:03:18.222Z,6.87
2022-09-16T00:05:47.571Z,8.33
2022-09-16T00:08:14.897Z,4.90
2022-09-16T00:10:43.407Z,9.53
2022-09-16T00:13:14.766Z,7.03
2022-09-16T00:15:46.762Z,7.73
2022-09-16T00:18:16.561Z,7.87
2022-09-16T00:20:51.576Z,9.70
2022-09-16T00:23:19.562Z,5.17
2022-09-16T00:25:52.515Z,8.13
2022-09-16T00:28:21.794Z,9.20
2022-09-16T00:30:50.202Z,7.73
2022-09-16T00:33:17.706Z,7.53
2022-09-16T00:35:44.495Z,7.33
2022-09-16T00:38:12.618Z,8.87
2022-09-16T00:40:47.812Z,8.90
2022-09-16T00:43:16.646Z,6.23
2022-09-16T00:45:49.751Z,6.67
2022-09-16T00:48:21.454Z,5.20
2022-09-16T00:50:52.648Z,5.80
2022-09-16T00:53:22.825Z,5.13
2022-09-16T00:55:51.813Z,4.83
2022-09-16T00:58:41.109Z,3.70
2022-09-16T01:01:07.881Z,4.77
2022-09-16T01:03:56.443Z,3.97
2022-09-16T01:06:25.566Z,7.77
2022-09-16T01:08:52.691Z,5.73
2022-09-16T01:11:19.563Z,4.80
2022-09-16T01:13:47.338Z,4.87
2022-09-16T01:16:23.197Z,3.37
2022-09-16T01:19:23.138Z,4.83
2022-09-16T01:22:20.811Z,4.20
2022-09-16T01:25:07.105Z,3.83
2022-09-16T01:27:46.168Z,3.10
2022-09-16T01:30:46.958Z,7.30
2022-09-16T01:33:34.463Z,4.63
2022-09-16T01:36:28.018Z,5.17
2022-09-16T01:39:17.193Z,3.37
2022-09-16T01:41:54.213Z,3.77
2022-09-16T01:44:40.076Z,4.10
2022-09-16T01:47:18.645Z,4.20
2022-09-16T01:50:10.449Z,3.43
2022-09-16T01:53:21.074Z,2.50
2022-09-16T01:56:00.748Z,4.50
2022-09-16T01:58:52.186Z,6.43
2022-09-16T02:01:25.240Z,5.70
2022-09-16T02:03:58.797Z,5.27
2022-09-16T02:06:30.249Z,7.77
2022-09-16T02:09:13.423Z,2.33
2022-09-16T02:11:42.608Z,4.87
2022-09-16T02:14:23.779Z,4.37
2022-09-16T02:16:59.690Z,5.63
2022-09-16T02:19:34.963Z,6.30
2022-09-16T02:22:07.523Z,4.43
2022-09-16T02:24:36.328Z,7.77
2022-09-16T02:27:08.549Z,4.90
2022-09-16T02:29:46.483Z,5.17
2022-09-16T02:32:18.465Z,4.17
2022-09-16T02:34:50.344Z,7.83
2022-09-16T02:37:43.459Z,3.73
2022-09-16T02:40:21.038Z,6.40
2022-09-16T02:42:51.644Z,4.27
2022-09-16T02:45:18.837Z,5.13
2022-09-16T02:48:04.463Z,3.27
2022-09-16T02:50:47.696Z,5.40
2022-09-16T02:53:36.375Z,7.10
2022-09-16T02:56:29.397Z,3.17
2022-09-16T02:58:56.255Z,6.37
2022-09-16T03:01:24.476Z,2.60
2022-09-16T03:03:55.223Z,4.47
2022-09-16T03:06:27.690Z,3.53
2022-09-16T03:09:01.441Z,4.70
2022-09-16T03:11:51.937Z,5.10
2022-09-16T03:14:37.479Z,2.07
2022-09-16T03:17:23.144Z,3.37
2022-09-16T03:20:12.100Z,3.23
2022-09-16T03:23:09.426Z,4.57
2022-09-16T03:25:54.868Z,5.30
2022-09-16T03:28:27.272Z,6.43
2022-09-16T03:31:25.769Z,5.13
2022-09-16T03:34:11.555Z,5.93
2022-09-16T03:36:46.072Z,5.10
2022-09-16T03:39:13.980Z,6.53
2022-09-16T03:41:41.231Z,3.80
2022-09-16T03:44:08.128Z,3.37
2022-09-16T03:46:34.950Z,6.00
2022-09-16T03:49:01.835Z,3.20
2022-09-16T03:51:28.516Z,9.07
2022-09-16T03:53:55.391Z,3.33
2022-09-16T03:56:24.283Z,9.60
2022-09-16T03:58:51.979Z,4.77
2022-09-16T04:01:18.858Z,5.07
2022-09-16T04:03:45.664Z,3.60
2022-09-16T04:06:12.421Z,3.10
2022-09-16T04:08:39.831Z,4.57
2022-09-16T04:11:07.512Z,4.37
2022-09-16T04:13:35.908Z,6.20
2022-09-16T04:16:05.200Z,4.23
2022-09-16T04:18:34.010Z,5.53
2022-09-16T04:21:02.900Z,4.07
2022-09-16T04:23:31.206Z,4.00
2022-09-16T04:25:59.741Z,6.87
2022-09-16T04:28:27.374Z,3.43
2022-09-16T04:30:54.283Z,4.07
2022-09-16T04:33:21.190Z,4.30
2022-09-16T04:35:48.014Z,1.87
2022-09-16T04:38:14.738Z,8.37
2022-09-16T04:40:41.864Z,4.20
2022-09-16T04:43:09.626Z,3.23
2022-09-16T04:45:36.404Z,3.43
2022-09-16T04:48:03.253Z,5.60
2022-09-16T04:50:30.055Z,3.40
2022-09-16T04:52:56.839Z,4.53
2022-09-16T04:55:24.154Z,5.17
2022-09-16T04:57:51.041Z,8.37
2022-09-16T05:00:17.883Z,3.20
2022-09-16T05:02:45.928Z,6.50
2022-09-16T05:05:21.289Z,3.23
2022-09-16T05:07:48.092Z,5.57
2022-09-16T05:10:14.768Z,4.97
2022-09-16T05:12:41.441Z,2.97
2022-09-16T05:15:09.451Z,4.17
2022-09-16T05:17:51.966Z,4.43
2022-09-16T05:20:19.027Z,3.70
2022-09-16T05:22:45.838Z,5.50
2022-09-16T05:25:12.541Z,3.70
2022-09-16T05:27:39.256Z,6.17
2022-09-16T05:30:06.498Z,5.57
2022-09-16T05:32:33.198Z,5.27
2022-09-16T05:35:00.289Z,4.50
2022-09-16T05:37:27.224Z,5.40
2022-09-16T05:39:54.249Z,3.70
2022-09-16T05:42:20.939Z,5.83
2022-09-16T05:44:47.660Z,4.00
2022-09-16T05:47:14.811Z,3.70
2022-09-16T05:49:41.522Z,4.00
2022-09-16T05:52:08.231Z,7.43
2022-09-16T05:54:34.865Z,3.47
2022-09-16T05:57:06.546Z,7.10
2022-09-16T05:59:33.575Z,4.17
2022-09-16T06:02:00.332Z,4.63
2022-09-16T06:04:27.091Z,3.17
2022-09-16T06:06:53.798Z,5.37
2022-09-16T06:09:23.517Z,5.20
2022-09-16T06:11:52.207Z,5.17
2022-09-16T06:14:19.832Z,9.80
2022-09-16T06:16:47.105Z,7.73
2022-09-16T06:19:17.210Z,5.57
2022-09-16T06:21:45.025Z,8.83
2022-09-16T06:24:13.126Z,8.83
2022-09-16T06:26:42.135Z,5.67
2022-09-16T06:29:09.807Z,4.10
2022-09-16T06:31:37.909Z,3.90
2022-09-16T06:34:05.883Z,3.23
2022-09-16T06:36:40.356Z,3.00
2022-09-16T06:39:12.095Z,5.30
2022-09-16T06:41:38.765Z,8.67
2022-09-16T06:44:05.550Z,5.27
2022-09-16T06:46:32.297Z,5.00
2022-09-16T06:49:04.332Z,4.80
2022-09-16T06:51:33.237Z,6.57
2022-09-16T06:54:05.531Z,4.50
2022-09-16T06:56:35.952Z,2.93
2022-09-16T06:59:03.616Z,4.03
2022-09-16T07:01:31.672Z,5.07
2022-09-16T07:04:01.542Z,2.20
2022-09-16T07:09:16.972Z,3.58
2022-09-16T07:11:43.700Z,1.25
2022-09-16T07:14:10.516Z,2.35
2022-09-16T07:16:37.265Z,3.25
2022-09-16T07:19:04.561Z,5.20
2022-09-16T07:21:31.579Z,5.07
2022-09-16T07:24:00.235Z,2.35
2022-09-16T07:26:32.188Z,2.90
2022-09-16T07:29:00.856Z,4.70
2022-09-16T07:31:29.771Z,4.68
2022-09-16T07:34:03.468Z,5.22
2022-09-16T07:36:33.687Z,6.32
2022-09-16T07:39:00.935Z,4.70
2022-09-16T07:41:30.878Z,4.68
2022-09-16T07:43:59.360Z,5.82
2022-09-16T07:46:31.328Z,6.38
2022-09-16T07:49:00.100Z,4.90
2022-09-16T07:51:28.678Z,7.43
2022-09-16T07:53:59.408Z,4.93
2022-09-16T07:56:29.059Z,5.22
2022-09-16T07:58:57.048Z,2.55
2022-09-16T08:01:25.264Z,5.57
2022-09-16T08:03:52.222Z,3.13
2022-09-16T08:06:21.618Z,3.10
2022-09-16T08:08:51.210Z,3.28
2022-09-16T08:11:18.059Z,7.30
2022-09-16T08:13:46.342Z,5.43
2022-09-16T08:16:16.311Z,2.88
2022-09-16T08:18:44.309Z,4.38
2022-09-16T08:21:13.973Z,4.65
2022-09-16T08:23:40.911Z,5.10
2022-09-16T08:26:10.680Z,5.50
2022-09-16T08:28:50.872Z,5.78
2022-09-16T08:31:24.666Z,6.60
2022-09-16T08:33:51.380Z,3.22
2022-09-16T08:36:20.732Z,3.03
2022-09-16T08:38:49.289Z,6.63
2022-09-16T08:41:49.312Z,6.70
2022-09-16T08:44:35.116Z,3.08
2022-09-16T08:47:13.069Z,5.72
2022-09-16T08:49:49.108Z,4.82
2022-09-16T08:52:33.490Z,6.07
2022-09-16T08:55:14.750Z,4.07
2022-09-16T08:57:58.495Z,4.00
2022-09-16T09:00:25.348Z,5.22
2022-09-16T09:03:15.961Z,4.40
2022-09-16T09:05:56.484Z,3.75
2022-09-16T09:08:41.771Z,7.00
2022-09-16T09:11:32.367Z,3.22
2022-09-16T09:14:21.692Z,7.55
2022-09-16T09:17:02.738Z,3.40
2022-09-16T09:19:48.524Z,5.13
2022-09-16T09:22:44.673Z,2.63
2022-09-16T09:25:26.842Z,2.85
2022-09-16T09:28:30.121Z,2.42
2022-09-16T09:31:18.727Z,4.35
2022-09-16T09:34:03.994Z,4.05
2022-09-16T09:36:42.742Z,4.43
2022-09-16T09:39:30.759Z,3.33
2022-09-16T09:42:06.153Z,3.58
2022-09-16T09:45:10.546Z,5.55
2022-09-16T09:47:47.565Z,2.58
2022-09-16T09:50:20.033Z,3.53
2022-09-16T09:53:02.460Z,4.13
2022-09-16T09:55:33.713Z,3.03
2022-09-16T09:58:35.099Z,1.85
2022-09-16T10:01:02.313Z,5.03
2022-09-16T10:03:31.464Z,1.08
2022-09-16T10:05:58.472Z,2.95
2022-09-16T10:08:30.068Z,5.03
2022-09-16T10:11:02.563Z,2.33
2022-09-16T10:13:31.045Z,2.67
2022-09-16T10:16:29.831Z,3.40
2022-09-16T10:18:59.262Z,2.90
2022-09-16T10:21:37.323Z,1.67
2022-09-16T10:24:04.200Z,2.40
2022-09-16T10:26:31.200Z,4.20
2022-09-16T10:29:11.873Z,4.70
2022-09-16T10:31:40.731Z,3.77
2022-09-16T10:34:19.529Z,3.63
2022-09-16T10:36:46.497Z,2.70
2022-09-16T10:39:25.759Z,4.90
2022-09-16T10:41:53.111Z,3.27
2022-09-16T10:44:28.117Z,2.70
2022-09-16T10:47:06.790Z,5.28
2022-09-16T10:50:02.159Z,3.58
2022-09-16T10:52:41.320Z,6.47
2022-09-16T10:55:36.701Z,7.85
2022-09-16T10:58:17.437Z,4.07
2022-09-16T11:01:13.865Z,5.05
2022-09-16T11:04:09.008Z,3.25
2022-09-16T11:07:14.930Z,1.75
2022-09-16T11:09:50.182Z,4.78
2022-09-16T11:12:25.743Z,2.45
2022-09-16T11:15:00.146Z,2.53
2022-09-16T11:17:41.354Z,3.45
2022-09-16T11:20:36.253Z,3.30
2022-09-16T11:23:25.086Z,4.47
2022-09-16T11:26:01.419Z,3.92
2022-09-16T11:28:53.876Z,3.78
2022-09-16T11:31:44.937Z,4.80
2022-09-16T11:34:29.492Z,2.50
2022-09-16T11:37:08.396Z,7.63
2022-09-16T11:40:03.373Z,5.15
2022-09-16T11:42:41.293Z,2.75
2022-09-16T11:45:35.352Z,5.28
2022-09-16T11:48:21.032Z,7.53
2022-09-16T11:51:08.089Z,5.70
2022-09-16T11:54:19.171Z,7.03
2022-09-16T11:56:53.704Z,7.75
2022-09-16T11:59:30.673Z,7.28
2022-09-16T12:02:18.964Z,4.72
2022-09-16T12:04:54.764Z,5.95
2022-09-16T12:07:25.732Z,6.35
2022-09-16T12:10:06.134Z,6.43
2022-09-16T12:12:39.013Z,7.18
2022-09-16T12:15:29.590Z,7.53
2022-09-16T12:18:02.894Z,10.77
2022-09-16T12:20:35.111Z,4.55
2022-09-16T12:23:17.200Z,5.60
2022-09-16T12:26:06.324Z,6.97
2022-09-16T12:28:50.738Z,5.65
2022-09-16T12:31:31.326Z,5.38
2022-09-16T12:34:16.583Z,7.65
2022-09-16T12:37:01.201Z,8.70
2022-09-16T12:39:28.834Z,6.50
2022-09-16T12:42:46.076Z,8.35
2022-09-16T12:45:41.151Z,8.85
2022-09-16T12:48:49.949Z,6.20
2022-09-16T12:52:06.757Z,5.47
2022-09-16T12:55:06.546Z,8.32
2022-09-16T12:57:37.524Z,6.22
2022-09-16T13:00:25.711Z,4.43
2022-09-16T13:03:04.736Z,10.27
2022-09-16T13:05:35.075Z,7.40
2022-09-16T13:08:26.190Z,3.55
2022-09-16T13:11:53.742Z,5.75
2022-09-16T13:13:59.264Z,6.65
2022-09-16T13:16:36.802Z,7.97
2022-09-16T13:19:24.858Z,7.97
2022-09-16T13:21:58.576Z,9.43
2022-09-16T13:24:42.504Z,5.10
2022-09-16T13:27:38.561Z,6.88
2022-09-16T13:30:17.145Z,6.05
2022-09-16T13:32:58.956Z,7.75
2022-09-16T13:35:32.568Z,8.60
2022-09-16T13:38:11.049Z,7.38
2022-09-16T13:40:37.974Z,4.68
2022-09-16T13:43:07.747Z,9.38
2022-09-16T13:46:05.322Z,5.82
2022-09-16T13:48:44.074Z,7.75
2022-09-16T13:51:20.178Z,8.20
2022-09-16T13:53:49.605Z,6.35
2022-09-16T13:56:26.148Z,7.50
2022-09-16T13:59:47.024Z,7.00
2022-09-16T14:02:34.928Z,5.57
2022-09-16T14:05:28.675Z,7.65
2022-09-16T14:08:29.410Z,5.65
2022-09-16T14:11:19.658Z,7.07
2022-09-16T14:14:04.909Z,7.28
2022-09-16T14:16:34.912Z,7.70
2022-09-16T14:19:20.672Z,8.30
2022-09-16T14:22:01.172Z,5.27
2022-09-16T14:24:36.324Z,5.37
2022-09-16T14:27:03.426Z,7.67
2022-09-16T14:29:30.939Z,5.40
2022-09-16T14:31:58.194Z,6.97
2022-09-16T14:34:33.867Z,5.25
2022-09-16T14:37:01.993Z,6.60
2022-09-16T14:39:30.111Z,3.03
2022-09-16T14:42:03.610Z,5.57
2022-09-16T14:44:40.720Z,2.47
2022-09-16T14:47:49.631Z,8.67
2022-09-16T14:50:23.514Z,3.47
2022-09-16T14:52:58.667Z,6.70
2022-09-16T14:55:31.292Z,4.60
2022-09-16T14:57:59.201Z,5.93
2022-09-16T15:00:42.849Z,6.77
2022-09-16T15:03:41.278Z,6.33
2022-09-16T15:06:14.313Z,9.43
2022-09-16T15:08:53.115Z,5.13
2022-09-16T15:11:46.505Z,7.27
2022-09-16T15:14:11.024Z,7.17
2022-09-16T15:16:47.078Z,7.30
2022-09-16T15:19:23.410Z,5.03
2022-09-16T15:21:51.159Z,5.13
2022-09-16T15:24:23.136Z,4.22
2022-09-16T15:26:50.450Z,8.20
2022-09-16T15:29:20.695Z,5.63
2022-09-16T15:31:47.869Z,9.57
2022-09-16T15:34:24.442Z,10.03
2022-09-16T15:36:52.665Z,9.52
2022-09-16T15:39:26.244Z,6.55
2022-09-16T15:42:23.891Z,5.17
2022-09-16T15:44:52.474Z,9.40
2022-09-16T15:47:27.165Z,6.77
2022-09-16T15:50:01.205Z,5.75
2022-09-16T15:52:28.168Z,8.03
2022-09-16T15:55:02.998Z,7.77
2022-09-16T15:57:41.573Z,8.10
2022-09-16T16:00:14.724Z,9.13
2022-09-16T16:02:56.913Z,9.03
2022-09-16T16:05:31.877Z,6.43
2022-09-16T16:08:08.939Z,8.82
2022-09-16T16:10:36.708Z,6.78
2022-09-16T16:13:04.693Z,7.13
2022-09-16T16:15:35.517Z,8.10
2022-09-16T16:18:05.836Z,8.37
2022-09-16T16:20:34.615Z,7.20
2022-09-16T16:23:01.945Z,10.17
2022-09-16T16:25:29.643Z,7.83
2022-09-16T16:27:56.489Z,11.97
2022-09-16T16:30:23.291Z,12.77
2022-09-16T16:32:49.983Z,8.53
2022-09-16T16:35:16.699Z,10.63
2022-09-16T16:37:47.638Z,9.83
2022-09-16T16:40:15.903Z,11.93
2022-09-16T16:42:44.049Z,9.00
2022-09-16T16:45:14.756Z,6.67
2022-09-16T16:47:42.702Z,9.57
2022-09-16T16:50:10.666Z,7.53
2022-09-16T16:52:37.967Z,13.73
2022-09-16T16:55:05.689Z,9.83
2022-09-16T16:57:34.706Z,7.40
2022-09-16T17:00:02.052Z,6.40
2022-09-16T17:02:28.994Z,8.55
2022-09-16T17:04:55.833Z,19.43
2022-09-16T17:07:26.089Z,9.00
2022-09-16T17:09:54.130Z,14.13
2022-09-16T17:12:20.873Z,8.27
2022-09-16T17:14:48.259Z,10.60
2022-09-16T17:17:15.057Z,7.47
2022-09-16T17:19:41.885Z,12.45
2022-09-16T17:22:08.600Z,6.85
2022-09-16T17:24:35.534Z,9.30
2022-09-16T17:27:05.395Z,6.73
2022-09-16T17:29:32.485Z,7.73
2022-09-16T17:32:02.530Z,7.30
2022-09-16T17:34:30.160Z,10.57
2022-09-16T17:36:58.291Z,7.53
2022-09-16T17:39:25.882Z,3.83
2022-09-16T17:41:54.489Z,7.90
2022-09-16T17:44:24.638Z,10.70
2022-09-16T17:46:51.494Z,4.13
2022-09-16T17:49:25.462Z,6.50
2022-09-16T17:51:53.589Z,7.37
2022-09-16T17:54:21.065Z,5.70
2022-09-16T17:56:47.984Z,9.73
2022-09-16T17:59:21.025Z,6.00
2022-09-16T18:01:48.627Z,5.50
2022-09-16T18:04:15.496Z,9.43
2022-09-16T18:06:44.198Z,5.03
2022-09-16T18:09:12.023Z,8.57
2022-09-16T18:11:39.400Z,6.50
2022-09-16T18:14:08.290Z,3.93
2022-09-16T18:16:35.905Z,6.13
2022-09-16T18:19:04.492Z,7.67
2022-09-16T18:21:33.565Z,8.73
2022-09-16T18:24:02.920Z,7.93
2022-09-16T18:26:30.842Z,4.27
2022-09-16T18:29:16.169Z,5.07
2022-09-16T18:31:45.196Z,6.60
2022-09-16T18:34:15.192Z,9.93
2022-09-16T18:36:42.343Z,8.07
2022-09-16T18:39:14.794Z,6.27
2022-09-16T18:41:43.197Z,7.27
2022-09-16T18:44:23.771Z,6.00
2022-09-16T18:46:51.349Z,3.43
2022-09-16T18:49:20.501Z,6.67
2022-09-16T18:51:52.304Z,9.53
2022-09-16T18:54:29.341Z,6.60
2022-09-16T18:57:01.865Z,8.83
2022-09-16T18:59:31.462Z,7.70
2022-09-16T19:02:01.075Z,4.37
2022-09-16T19:04:30.783Z,6.77
2022-09-16T19:06:59.675Z,4.40
2022-09-16T19:09:26.566Z,4.00
2022-09-16T19:11:54.175Z,8.60
2022-09-16T19:14:24.577Z,6.73
2022-09-16T19:16:52.137Z,5.27
2022-09-16T19:19:19.535Z,6.37
2022-09-16T19:21:47.331Z,8.57
2022-09-16T19:24:19.720Z,5.50
2022-09-16T19:26:47.917Z,8.07
2022-09-16T19:29:15.741Z,3.67
2022-09-16T19:31:45.125Z,4.37
2022-09-16T19:34:15.236Z,3.07
2022-09-16T19:36:42.810Z,4.70
2022-09-16T19:39:10.783Z,6.13
2022-09-16T19:41:38.871Z,13.67
2022-09-16T19:44:08.366Z,6.70
2022-09-16T19:46:37.205Z,5.40
2022-09-16T19:49:06.256Z,5.93
2022-09-16T19:51:33.258Z,3.87
2022-09-16T19:54:01.199Z,4.77
2022-09-16T19:56:32.151Z,4.40
2022-09-16T19:58:59.161Z,4.70
2022-09-16T20:01:28.586Z,8.20
2022-09-16T20:03:56.002Z,1.73
2022-09-16T20:06:36.530Z,6.30
2022-09-16T20:09:06.206Z,3.93
2022-09-16T20:11:36.165Z,4.47
2022-09-16T20:14:06.069Z,2.00
2022-09-16T20:16:35.885Z,4.10
2022-09-16T20:19:07.758Z,5.77
2022-09-16T20:21:35.442Z,4.33
2022-09-16T20:24:05.714Z,2.17
2022-09-16T20:26:34.132Z,3.97
2022-09-16T20:29:01.317Z,4.40
2022-09-16T20:31:31.735Z,4.20
2022-09-16T20:33:58.988Z,3.00
2022-09-16T20:36:27.123Z,6.63
2022-09-16T20:38:53.846Z,4.53
2022-09-16T20:41:25.392Z,7.17
2022-09-16T20:43:52.747Z,6.37
2022-09-16T20:46:22.317Z,6.20
2022-09-16T20:48:51.533Z,5.53
2022-09-16T20:51:19.974Z,8.93
2022-09-16T20:54:07.366Z,4.37
2022-09-16T20:56:38.193Z,5.73
2022-09-16T20:59:07.666Z,7.13
2022-09-16T21:01:35.596Z,10.30
2022-09-16T21:04:05.172Z,11.47
2022-09-16T21:06:34.651Z,5.17
2022-09-16T21:09:05.360Z,9.47
2022-09-16T21:11:33.086Z,4.67
2022-09-16T21:14:01.871Z,14.33
2022-09-16T21:16:31.825Z,14.03
2022-09-16T21:19:01.199Z,7.47
2022-09-16T21:21:28.860Z,12.40
2022-09-16T21:23:57.840Z,11.63
2022-09-16T21:26:32.648Z,10.20
2022-09-16T21:29:01.512Z,7.17
2022-09-16T21:31:33.369Z,11.80
2022-09-16T21:34:03.059Z,10.97
2022-09-16T21:36:30.364Z,10.30
2022-09-16T21:38:57.688Z,15.53
2022-09-16T21:41:25.298Z,11.83
2022-09-16T21:43:55.601Z,10.27
2022-09-16T21:46:27.754Z,8.57
2022-09-16T21:49:02.089Z,11.77
2022-09-16T21:51:36.961Z,8.37
2022-09-16T21:54:06.135Z,8.73
2022-09-16T21:56:32.942Z,8.27
2022-09-16T21:59:00.214Z,10.23
2022-09-16T22:01:30.213Z,13.60
2022-09-16T22:03:59.936Z,8.73
2022-09-16T22:06:27.174Z,11.77
2022-09-16T22:08:55.237Z,10.37
2022-09-16T22:11:24.762Z,10.30
2022-09-16T22:13:52.838Z,14.07
2022-09-16T22:16:26.841Z,15.43
2022-09-16T22:18:55.256Z,21.20
2022-09-16T22:21:23.645Z,12.20
2022-09-16T22:23:50.747Z,11.47
2022-09-16T22:26:19.264Z,11.77
2022-09-16T22:28:46.507Z,8.70
2022-09-16T22:31:19.209Z,10.73
2022-09-16T22:33:50.414Z,9.50
2022-09-16T22:36:19.788Z,9.53
2022-09-16T22:38:51.671Z,10.80
2022-09-16T22:41:19.341Z,7.57
2022-09-16T22:43:48.248Z,11.17
2022-09-16T22:46:18.601Z,15.53
2022-09-16T22:48:45.837Z,11.47
2022-09-16T22:51:13.909Z,13.00
2022-09-16T22:53:41.869Z,10.43
2022-09-16T22:56:16.128Z,12.83
2022-09-16T22:58:44.226Z,11.40
2022-09-16T23:01:13.793Z,13.60
2022-09-16T23:03:41.178Z,12.87
2022-09-16T23:06:10.550Z,15.90
2022-09-16T23:08:39.117Z,15.47
2022-09-16T23:11:08.619Z,10.53
2022-09-16T23:13:36.253Z,10.63
2022-09-16T23:16:05.748Z,12.17
2022-09-16T23:18:34.781Z,12.13
2022-09-16T23:21:05.306Z,11.20
2022-09-16T23:23:36.874Z,10.80
2022-09-16T23:26:09.142Z,14.27
2022-09-16T23:28:36.120Z,10.50
2022-09-16T23:31:24.895Z,20.40
2022-09-16T23:33:52.705Z,11.30
2022-09-16T23:36:20.526Z,11.77
2022-09-16T23:38:48.139Z,16.03
2022-09-16T23:41:20.632Z,15.73
2022-09-16T23:43:48.798Z,15.70
2022-09-16T23:46:19.197Z,11.97
2022-09-16T23:48:46.815Z,16.23
2022-09-16T23:51:14.100Z,14.60
2022-09-16T23:53:42.500Z,18.63
2022-09-16T23:56:11.457Z,18.67
2022-09-16T23:58:38.473Z,15.37
